createdAt,value
2023-06-24T00:00:01.839Z,51.79154708881368
2023-06-24T00:15:02.500Z,52.01333577680559
2023-06-24T00:30:02.244Z,52.87983229902726
2023-06-24T00:45:01.864Z,52.86954073548071
2023-06-24T01:00:02.483Z,53.089383684883444
2023-06-24T01:15:02.110Z,54.79238186057363
2023-06-24T01:30:01.766Z,53.82051885293482
2023-06-24T01:45:02.403Z,53.86597313757347
2023-06-24T02:00:02.007Z,53.96939676325283
2023-06-24T02:15:01.631Z,54.49572593959375
2023-06-24T02:30:02.331Z,55.28194550093942
2023-06-24T02:45:01.966Z,54.977143906524205
2023-06-24T03:00:01.648Z,55.06428384015236
2023-06-24T03:15:02.360Z,55.387320713665865
2023-06-24T03:30:02.079Z,55.69009851452449
2023-06-24T03:45:01.709Z,56.100191607222364
2023-06-24T04:00:02.365Z,56.079143500489096
2023-06-24T04:15:01.975Z,56.52183131148623
2023-06-24T04:30:02.289Z,56.27732347460272
2023-06-24T04:45:01.946Z,56.20085718360192
2023-06-24T05:00:01.553Z,56.14845648298825
2023-06-24T05:15:02.256Z,56.225387066296214
2023-06-24T05:30:02.068Z,56.25971564824525
2023-06-24T05:45:01.716Z,56.65491472515197
2023-06-24T06:00:02.300Z,56.18536238895706
2023-06-24T06:15:01.915Z,56.34911475758783
2023-06-24T06:30:01.590Z,55.93755319213254
2023-06-24T06:45:02.257Z,56.9972484782977
2023-06-24T07:00:01.852Z,57.360689741922
2023-06-24T07:15:02.477Z,57.544010366044894
2023-06-24T07:30:02.170Z,57.27176764859389
2023-06-24T07:45:01.828Z,57.17249354461609
2023-06-24T08:00:02.454Z,56.321931485130584
2023-06-24T08:15:02.096Z,55.90717671129441
2023-06-24T08:30:01.756Z,55.12082696654392
2023-06-24T08:45:02.434Z,53.83313289406368
2023-06-24T09:00:02.067Z,52.898818740006085
2023-06-24T09:15:01.854Z,51.923216331597075
2023-06-24T09:30:02.614Z,50.55581431012435
2023-06-24T09:45:02.240Z,49.67636828406651
2023-06-24T10:00:01.895Z,49.092013046292436
2023-06-24T10:15:02.534Z,48.694648627378065
2023-06-24T10:30:02.242Z,48.08327155984904
2023-06-24T10:45:01.836Z,47.539024042351265
2023-06-24T11:00:02.462Z,46.82355031492861
2023-06-24T11:15:02.118Z,45.81001663722567
2023-06-24T11:30:01.806Z,43.05215406413402
2023-06-24T11:45:02.454Z,43.86791529413991
2023-06-24T12:00:02.127Z,42.2424060597719
2023-06-24T12:15:01.754Z,42.76729321744699
2023-06-24T12:30:02.452Z,42.99391609146216
2023-06-24T12:45:02.150Z,42.58852128095046
2023-06-24T13:00:01.799Z,41.65677273381906
2023-06-24T13:15:02.366Z,41.399017637105345
2023-06-24T13:30:02.042Z,41.48236025427678
2023-06-24T13:45:01.661Z,41.009607663290275
2023-06-24T14:00:02.280Z,41.07477004646194
2023-06-24T14:15:01.903Z,40.40281962157989
2023-06-24T14:30:01.564Z,40.12046444022449
2023-06-24T14:45:02.181Z,39.388870400874545
2023-06-24T15:00:01.822Z,39.36315909111756
2023-06-24T15:15:02.448Z,39.63218032590347
2023-06-24T15:30:02.161Z,38.5438900980316
2023-06-24T15:45:01.797Z,38.1021819989477
2023-06-24T16:00:02.456Z,37.982912422706626
2023-06-24T16:15:02.179Z,38.48231866950355
2023-06-24T16:30:01.862Z,37.9045167927168
2023-06-24T16:45:02.519Z,36.83677783638674
2023-06-24T17:00:02.095Z,37.18437462961925
2023-06-24T17:15:01.761Z,37.14012820899548
2023-06-24T17:30:02.491Z,37.08850639682953
2023-06-24T17:45:02.165Z,37.02240601237543
2023-06-24T18:00:01.800Z,36.803005663576045
2023-06-24T18:15:02.426Z,37.03672961948872
2023-06-24T18:30:02.125Z,38.44192979222977
2023-06-24T18:45:01.775Z,38.72432479086713
2023-06-24T19:00:02.371Z,39.662723372424075
2023-06-24T19:15:02.017Z,40.21445204555761
2023-06-24T19:30:01.705Z,40.602870860538275
2023-06-24T19:45:02.319Z,41.29772426285948
2023-06-24T20:00:01.965Z,42.63037386209189
2023-06-24T20:15:01.679Z,42.666044274481294
2023-06-24T20:30:02.422Z,42.993588725767225
2023-06-24T20:45:02.013Z,43.45147013722775
2023-06-24T21:00:01.650Z,43.88466193540317
2023-06-24T21:15:02.293Z,44.821110642001834
2023-06-24T21:30:01.992Z,44.69474222328818
2023-06-24T21:45:01.662Z,45.030421971815684
2023-06-24T22:00:02.282Z,46.18236342517565
2023-06-24T22:15:01.924Z,46.858782878313484
2023-06-24T22:30:01.559Z,47.79843924400827
2023-06-24T22:45:02.184Z,46.94098763994469
2023-06-24T23:00:01.796Z,47.27401320383027
2023-06-24T23:15:02.420Z,47.51225042561834
2023-06-24T23:30:02.230Z,47.5319019273163
2023-06-24T23:45:01.930Z,47.76993674868608
